Time;durP1;ratioP1;P1;durP2;ratioP2;P2;SDS_P1;SDS_P2;PMS_P1;PMS_P2;Temp;Humidity;BMP_temperature;BMP_pressure;BME280_temperature;BME280_humidity;BME280_pressure;Samples;Min_cycle;Max_cycle;Signal;HPM_P1;HPM_P2
2023/01/11 00:00:46;;;;;;;3.80;1.80;;;21.60;59.90;;;;;;4927324;29;20944;-74
2023/01/11 00:03:15;;;;;;;3.67;1.80;;;21.60;59.70;;;;;;4930651;29;20490;-74
2023/01/11 00:05:43;;;;;;;2.50;1.90;;;21.60;59.90;;;;;;4934047;29;20943;-73
2023/01/11 00:08:12;;;;;;;2.47;2.07;;;21.70;59.90;;;;;;4933605;29;20551;-73
2023/01/11 00:10:42;;;;;;;2.13;1.90;;;21.70;59.30;;;;;;4934083;29;20521;-74
2023/01/11 00:13:10;;;;;;;4.23;1.97;;;21.70;59.70;;;;;;4934017;29;20565;-72
2023/01/11 00:15:40;;;;;;;1.97;1.87;;;21.70;59.70;;;;;;4938588;29;20838;-73
2023/01/11 00:18:08;;;;;;;2.20;2.00;;;21.70;59.50;;;;;;4937622;29;20451;-74
2023/01/11 00:20:39;;;;;;;1.73;1.63;;;21.70;59.50;;;;;;4923009;29;20441;-73
2023/01/11 00:23:08;;;;;;;2.30;1.93;;;21.60;59.50;;;;;;4935623;29;20524;-73
2023/01/11 00:25:36;;;;;;;2.07;1.87;;;21.60;59.80;;;;;;4938185;29;20483;-73
2023/01/11 00:28:05;;;;;;;3.57;2.10;;;21.60;59.90;;;;;;4935993;29;20519;-73
2023/01/11 00:30:36;;;;;;;2.40;2.20;;;21.60;59.70;;;;;;4934448;29;20493;-74
2023/01/11 00:33:05;;;;;;;1.67;1.57;;;21.50;59.70;;;;;;4937400;29;20453;-74
2023/01/11 00:35:33;;;;;;;1.73;1.63;;;21.50;59.50;;;;;;4938379;29;20477;-73
2023/01/11 00:38:01;;;;;;;1.87;1.77;;;21.50;60.00;;;;;;4937649;29;20788;-73
2023/01/11 00:40:29;;;;;;;1.73;1.63;;;21.40;60.10;;;;;;4937723;29;20470;-74
2023/01/11 00:48:41;;;;;;;3.90;2.00;;;21.40;60.20;;;;;;4895754;29;20522;-73
2023/01/11 00:51:09;;;;;;;1.70;1.60;;;21.40;60.30;;;;;;4928042;29;20511;-73
2023/01/11 00:53:37;;;;;;;1.93;1.70;;;21.40;60.30;;;;;;4935911;29;20495;-73
2023/01/11 00:56:06;;;;;;;1.90;1.80;;;21.40;60.40;;;;;;4937649;29;20435;-73
2023/01/11 00:58:34;;;;;;;1.60;1.50;;;21.40;60.40;;;;;;4937105;29;20627;-73
2023/01/11 01:01:06;;;;;;;3.17;1.60;;;21.40;60.30;;;;;;4937668;29;20466;-74
2023/01/11 01:03:35;;;;;;;2.20;1.93;;;21.40;60.30;;;;;;4936397;29;21086;-73
2023/01/11 01:06:05;;;;;;;1.93;1.83;;;21.50;60.30;;;;;;4926681;29;20459;-73
2023/01/11 01:08:33;;;;;;;1.90;1.80;;;21.50;60.20;;;;;;4936966;29;20527;-73
2023/01/11 01:11:01;;;;;;;1.40;1.30;;;21.50;60.20;;;;;;4936175;29;20460;-74
2023/01/11 01:16:15;;;;;;;1.77;1.67;;;21.50;59.90;;;;;;4922535;29;20468;-73
2023/01/11 01:18:43;;;;;;;1.47;1.37;;;21.60;60.10;;;;;;4936753;29;20464;-73
2023/01/11 01:21:12;;;;;;;1.70;1.60;;;21.60;60.10;;;;;;4937126;29;20444;-73
2023/01/11 01:23:41;;;;;;;1.60;1.50;;;21.60;60.10;;;;;;4936989;29;20479;-73
2023/01/11 01:26:09;;;;;;;2.20;1.60;;;21.60;60.10;;;;;;4935494;29;20460;-73
2023/01/11 01:28:37;;;;;;;1.73;1.63;;;21.60;60.10;;;;;;4936440;29;20449;-74
2023/01/11 01:31:05;;;;;;;1.50;1.40;;;21.60;60.00;;;;;;4934507;29;20550;-73
2023/01/11 01:33:33;;;;;;;1.70;1.60;;;21.60;59.40;;;;;;4934304;29;20475;-73
2023/01/11 01:36:02;;;;;;;2.23;1.80;;;21.60;59.40;;;;;;4934770;29;20515;-73
2023/01/11 01:38:32;;;;;;;1.80;1.70;;;21.60;59.30;;;;;;4936639;29;20470;-73
2023/01/11 01:41:00;;;;;;;1.50;1.40;;;21.60;59.60;;;;;;4936728;29;20511;-73
2023/01/11 01:43:45;;;;;;;1.60;1.50;;;21.60;59.70;;;;;;4935175;29;20558;-72
2023/01/11 01:46:14;;;;;;;1.37;1.27;;;21.60;59.70;;;;;;4936754;29;20538;-73
2023/01/11 01:48:44;;;;;;;1.80;1.70;;;21.50;59.70;;;;;;4936229;29;21201;-73
2023/01/11 01:51:16;;;;;;;1.53;1.43;;;21.50;59.90;;;;;;4936556;29;20521;-72
2023/01/11 01:53:48;;;;;;;1.93;1.40;;;21.50;59.50;;;;;;4928417;29;20913;-73
2023/01/11 01:56:19;;;;;;;1.57;1.47;;;21.50;59.40;;;;;;4934872;29;20460;-73
2023/01/11 01:58:53;;;;;;;1.50;1.40;;;21.50;59.50;;;;;;4934280;29;20491;-73
2023/01/11 02:04:12;;;;;;;1.50;1.40;;;21.40;59.20;;;;;;4931000;29;20483;-73
2023/01/11 02:06:41;;;;;;;1.53;1.43;;;21.40;59.80;;;;;;4919996;29;20453;-73
2023/01/11 02:09:21;;;;;;;1.33;1.23;;;21.40;59.30;;;;;;4932459;29;20455;-73
2023/01/11 02:11:51;;;;;;;1.47;1.37;;;21.40;60.10;;;;;;4934928;29;20519;-73
2023/01/11 02:14:21;;;;;;;1.43;1.13;;;21.40;60.10;;;;;;4935973;29;20983;-73
2023/01/11 02:16:49;;;;;;;2.30;1.57;;;21.40;60.00;;;;;;4920829;29;20543;-73
2023/01/11 02:19:31;;;;;;;1.50;1.40;;;21.40;59.40;;;;;;4935359;29;20871;-73
2023/01/11 02:22:30;;;;;;;1.87;1.40;;;21.40;59.60;;;;;;4931574;29;20488;-73
2023/01/11 02:25:31;;;;;;;1.60;1.17;;;21.40;59.30;;;;;;4917072;29;20955;-73
2023/01/11 02:28:07;;;;;;;3.13;1.43;;;21.40;59.30;;;;;;4915608;29;20947;-73
2023/01/11 02:30:44;;;;;;;2.27;1.50;;;21.40;59.40;;;;;;4918787;29;20465;-73
2023/01/11 02:33:22;;;;;;;1.97;1.67;;;21.40;59.80;;;;;;4933313;29;20511;-73
2023/01/11 02:36:00;;;;;;;1.70;1.40;;;21.40;59.70;;;;;;4935231;29;20522;-74
2023/01/11 02:38:32;;;;;;;1.30;1.20;;;21.40;59.50;;;;;;4935487;29;20446;-73
2023/01/11 02:41:07;;;;;;;1.67;1.57;;;21.40;59.10;;;;;;4935807;29;20472;-74
2023/01/11 02:46:36;;;;;;;1.27;1.20;;;21.40;59.00;;;;;;4934686;29;20959;-73
2023/01/11 02:49:11;;;;;;;1.97;1.63;;;21.40;59.10;;;;;;4934774;29;20593;-74
2023/01/11 02:51:45;;;;;;;1.30;1.20;;;21.40;59.40;;;;;;4935198;29;20483;-73
2023/01/11 02:54:17;;;;;;;2.00;1.60;;;21.40;59.30;;;;;;4933865;29;20832;-73
2023/01/11 02:56:48;;;;;;;1.30;1.30;;;21.40;59.20;;;;;;4934347;29;20541;-73
2023/01/11 02:59:22;;;;;;;1.37;1.27;;;21.40;59.10;;;;;;4935046;29;20495;-73
2023/01/11 03:01:54;;;;;;;2.03;1.63;;;21.40;59.40;;;;;;4934666;29;20458;-73
2023/01/11 03:04:24;;;;;;;1.30;1.20;;;21.40;59.50;;;;;;4935892;29;20473;-73
2023/01/11 03:07:01;;;;;;;1.40;1.30;;;21.40;59.10;;;;;;4920184;29;20804;-73
2023/01/11 03:09:39;;;;;;;1.77;1.47;;;21.40;59.10;;;;;;4934137;29;20461;-73
2023/01/11 03:15:31;;;;;;;1.73;1.40;;;21.40;59.00;;;;;;4933704;29;20490;-73
2023/01/11 03:18:10;;;;;;;1.40;1.30;;;21.40;59.40;;;;;;4915374;29;20470;-73
2023/01/11 03:20:42;;;;;;;1.50;1.20;;;21.40;59.60;;;;;;4920053;29;20799;-73
2023/01/11 03:23:19;;;;;;;1.30;1.20;;;21.40;59.40;;;;;;4935011;29;20462;-73
2023/01/11 03:25:57;;;;;;;0.87;0.87;;;21.40;59.10;;;;;;4934803;29;20947;-73
2023/01/11 03:28:37;;;;;;;3.07;1.60;;;21.40;59.80;;;;;;4934007;29;20966;-73
2023/01/11 03:31:13;;;;;;;1.20;1.10;;;21.40;59.80;;;;;;4930957;29;20565;-73
2023/01/11 03:33:51;;;;;;;1.30;1.20;;;21.40;59.30;;;;;;4933932;29;20528;-73
2023/01/11 03:36:23;;;;;;;0.93;0.93;;;21.40;59.10;;;;;;4934746;29;20538;-73
2023/01/11 03:38:55;;;;;;;1.10;1.10;;;21.40;59.30;;;;;;4934783;29;20439;-74
2023/01/11 03:41:28;;;;;;;1.43;1.33;;;21.40;59.70;;;;;;4931638;29;20816;-73
2023/01/11 03:43:58;;;;;;;1.20;1.10;;;21.40;59.80;;;;;;4934285;29;20495;-73
2023/01/11 03:46:31;;;;;;;1.23;1.10;;;21.40;59.70;;;;;;4934105;29;20604;-73
2023/01/11 03:49:02;;;;;;;0.90;0.90;;;21.40;59.70;;;;;;4932206;29;20464;-73
2023/01/11 03:51:33;;;;;;;1.40;1.30;;;21.40;59.90;;;;;;4923360;29;20449;-72
2023/01/11 03:54:04;;;;;;;1.37;1.30;;;21.40;59.40;;;;;;4915935;29;20432;-72
2023/01/11 03:56:39;;;;;;;1.40;1.20;;;21.40;59.70;;;;;;4915056;29;20451;-73
2023/01/11 03:59:07;;;;;;;1.30;1.20;;;21.40;59.90;;;;;;4931358;29;20843;-73
2023/01/11 04:01:37;;;;;;;1.30;1.20;;;21.40;59.50;;;;;;4934160;29;20440;-73
2023/01/11 04:04:06;;;;;;;1.27;1.20;;;21.40;59.80;;;;;;4932034;29;20803;-73
2023/01/11 04:06:37;;;;;;;1.17;1.10;;;21.40;59.90;;;;;;4919167;29;20808;-72
2023/01/11 04:09:05;;;;;;;1.67;1.07;;;21.40;59.50;;;;;;4915689;29;21106;-73
2023/01/11 04:11:33;;;;;;;1.90;0.90;;;21.40;59.30;;;;;;4933782;29;20453;-73
2023/01/11 04:14:01;;;;;;;1.10;1.00;;;21.40;59.30;;;;;;4933679;29;20495;-72
2023/01/11 04:16:30;;;;;;;1.33;1.23;;;21.40;59.10;;;;;;4934184;29;20439;-72
2023/01/11 04:19:01;;;;;;;1.43;1.17;;;21.40;59.20;;;;;;4932050;29;20571;-73
2023/01/11 04:21:30;;;;;;;1.00;1.00;;;21.40;59.60;;;;;;4931658;29;20553;-73
2023/01/11 04:23:58;;;;;;;0.80;0.80;;;21.40;59.80;;;;;;4933532;29;20535;-73
2023/01/11 04:26:26;;;;;;;1.13;1.03;;;21.40;59.50;;;;;;4933010;29;20841;-72
2023/01/11 04:28:54;;;;;;;1.20;1.10;;;21.40;59.20;;;;;;4932102;29;20463;-73
2023/01/11 04:31:22;;;;;;;1.80;1.30;;;21.40;59.10;;;;;;4934220;29;20511;-72
2023/01/11 04:33:50;;;;;;;1.13;1.03;;;21.40;59.30;;;;;;4932616;29;20456;-73
2023/01/11 04:36:20;;;;;;;1.47;1.37;;;21.40;59.10;;;;;;4933846;29;20510;-72
2023/01/11 04:38:48;;;;;;;0.97;0.97;;;21.40;59.10;;;;;;4933324;29;20462;-73
2023/01/11 04:44:02;;;;;;;1.17;1.10;;;21.40;59.20;;;;;;4933370;29;21316;-73
2023/01/11 04:46:30;;;;;;;1.80;1.20;;;21.40;59.20;;;;;;4933003;29;20572;-73
2023/01/11 04:48:58;;;;;;;1.40;1.30;;;21.40;59.80;;;;;;4931539;29;20494;-73
2023/01/11 04:51:28;;;;;;;1.10;0.70;;;21.40;59.90;;;;;;4932419;29;20462;-73
2023/01/11 04:53:56;;;;;;;0.90;0.90;;;21.40;59.90;;;;;;4934437;29;20448;-73
2023/01/11 04:56:24;;;;;;;1.00;1.00;;;21.40;59.80;;;;;;4931967;29;20957;-73
2023/01/11 04:58:53;;;;;;;1.03;1.03;;;21.40;59.80;;;;;;4930375;29;20551;-73
2023/01/11 05:01:21;;;;;;;0.93;0.93;;;21.50;59.80;;;;;;4927910;29;20472;-73
2023/01/11 05:03:50;;;;;;;1.07;1.00;;;21.50;59.80;;;;;;4934680;29;20466;-73
2023/01/11 05:06:21;;;;;;;1.17;1.07;;;21.50;59.80;;;;;;4935375;29;20487;-73
2023/01/11 05:08:50;;;;;;;0.87;0.87;;;21.50;59.70;;;;;;4933174;29;20486;-73
2023/01/11 05:11:19;;;;;;;1.10;1.00;;;21.50;59.60;;;;;;4936546;29;20534;-73
2023/01/11 05:13:47;;;;;;;0.80;0.80;;;21.50;59.70;;;;;;4935626;29;20483;-73
2023/01/11 05:16:17;;;;;;;1.20;1.10;;;21.50;59.50;;;;;;4931263;29;20499;-73
2023/01/11 05:18:47;;;;;;;1.50;1.17;;;21.50;59.40;;;;;;4930984;29;20952;-73
2023/01/11 05:21:17;;;;;;;1.03;0.93;;;21.50;59.60;;;;;;4933560;29;20501;-73
2023/01/11 05:23:46;;;;;;;1.40;1.30;;;21.50;59.60;;;;;;4933025;29;20463;-73
2023/01/11 05:26:18;;;;;;;0.97;0.97;;;21.50;59.70;;;;;;4933070;29;20534;-73
2023/01/11 05:28:46;;;;;;;0.83;0.83;;;21.50;59.50;;;;;;4934502;29;20443;-73
2023/01/11 05:31:15;;;;;;;1.00;1.00;;;21.50;59.80;;;;;;4931640;29;20555;-72
2023/01/11 05:33:44;;;;;;;1.23;0.97;;;21.50;59.80;;;;;;4923338;29;20461;-72
2023/01/11 05:36:14;;;;;;;0.90;0.90;;;21.50;59.70;;;;;;4929998;29;20523;-72
2023/01/11 05:38:42;;;;;;;1.27;1.10;;;21.50;59.30;;;;;;4918583;29;20456;-72
2023/01/11 05:41:11;;;;;;;1.20;1.10;;;21.50;59.50;;;;;;4924735;29;20503;-73
2023/01/11 05:46:26;;;;;;;0.77;0.70;;;21.50;59.20;;;;;;4919526;29;20487;-73
2023/01/11 05:48:55;;;;;;;1.53;0.90;;;21.50;59.20;;;;;;4924001;29;20574;-72
2023/01/11 05:51:23;;;;;;;1.00;0.90;;;21.60;59.50;;;;;;4922013;29;20996;-73
2023/01/11 05:53:52;;;;;;;1.00;0.90;;;21.60;59.50;;;;;;4920659;29;20841;-73
2023/01/11 05:56:20;;;;;;;0.70;0.70;;;21.60;59.20;;;;;;4918661;29;20480;-71
2023/01/11 05:58:50;;;;;;;1.07;0.80;;;21.60;59.30;;;;;;4920397;29;20565;-73
2023/01/11 06:01:20;;;;;;;1.30;0.90;;;21.60;59.20;;;;;;4923617;29;20942;-75
2023/01/11 06:03:48;;;;;;;1.03;0.70;;;21.60;59.30;;;;;;4926942;29;20537;-72
2023/01/11 06:06:18;;;;;;;0.73;0.70;;;21.60;59.20;;;;;;4927407;29;20575;-72
2023/01/11 06:08:46;;;;;;;0.87;0.87;;;21.60;59.20;;;;;;4924321;29;20539;-74
2023/01/11 06:11:15;;;;;;;1.03;0.97;;;21.50;59.00;;;;;;4921379;29;20480;-73
2023/01/11 06:13:45;;;;;;;0.80;0.80;;;21.50;59.20;;;;;;4922106;29;20922;-73
2023/01/11 06:16:16;;;;;;;0.97;0.90;;;21.50;59.70;;;;;;4924832;29;20462;-72
2023/01/11 06:18:46;;;;;;;2.00;0.83;;;21.40;59.80;;;;;;4920817;29;20997;-72
2023/01/11 06:21:15;;;;;;;0.87;0.87;;;21.40;59.80;;;;;;4920467;29;20506;-73
2023/01/11 06:23:45;;;;;;;0.80;0.80;;;21.40;59.80;;;;;;4921375;29;20555;-73
2023/01/11 06:26:16;;;;;;;1.07;0.77;;;21.40;59.90;;;;;;4923889;29;20514;-74
2023/01/11 06:28:44;;;;;;;0.83;0.83;;;21.40;59.90;;;;;;4919575;29;20634;-72
2023/01/11 06:31:14;;;;;;;0.80;0.80;;;21.30;60.00;;;;;;4926379;29;21011;-73
2023/01/11 06:33:45;;;;;;;1.00;0.90;;;21.30;60.00;;;;;;4929082;29;20447;-73
2023/01/11 06:36:14;;;;;;;0.90;0.90;;;21.30;60.00;;;;;;4927122;29;20463;-72
2023/01/11 06:38:43;;;;;;;1.03;0.90;;;21.30;60.10;;;;;;4926550;29;20820;-73
2023/01/11 06:41:12;;;;;;;1.10;1.00;;;21.30;60.10;;;;;;4928346;29;20885;-73
2023/01/11 06:43:40;;;;;;;1.03;0.63;;;21.30;60.10;;;;;;4932017;29;20459;-75
2023/01/11 06:46:15;;;;;;;1.00;0.90;;;21.40;60.10;;;;;;4933287;29;20463;-74
2023/01/11 06:48:43;;;;;;;0.73;0.73;;;21.40;60.20;;;;;;4931212;29;20455;-74
2023/01/11 06:51:12;;;;;;;1.53;1.00;;;21.40;60.10;;;;;;4928573;29;21240;-75
2023/01/11 06:53:41;;;;;;;0.80;0.80;;;21.50;60.00;;;;;;4923131;29;20464;-74
2023/01/11 06:56:13;;;;;;;0.77;0.77;;;21.50;59.90;;;;;;4924976;29;20510;-76
2023/01/11 06:58:41;;;;;;;0.83;0.83;;;21.60;59.80;;;;;;4925146;29;20459;-75
2023/01/11 07:01:13;;;;;;;0.80;0.80;;;21.60;59.80;;;;;;4925729;29;20511;-75
2023/01/11 07:03:42;;;;;;;1.43;0.77;;;21.60;59.80;;;;;;4925126;29;20496;-75
2023/01/11 07:06:10;;;;;;;0.90;0.60;;;21.60;59.60;;;;;;4926201;29;20466;-76
2023/01/11 07:08:38;;;;;;;0.93;0.90;;;21.60;59.30;;;;;;4931751;29;20492;-74
2023/01/11 07:11:07;;;;;;;1.27;1.17;;;21.60;59.70;;;;;;4931843;29;20488;-76
2023/01/11 07:13:35;;;;;;;1.37;1.27;;;21.60;59.70;;;;;;4931745;29;20498;-76
2023/01/11 07:16:03;;;;;;;1.23;0.70;;;21.60;59.70;;;;;;4934664;29;20539;-76
2023/01/11 07:18:33;;;;;;;0.90;0.90;;;21.60;59.70;;;;;;4926509;29;20510;-74
2023/01/11 07:21:02;;;;;;;0.87;0.87;;;21.60;59.40;;;;;;4924240;29;20479;-74
2023/01/11 07:23:30;;;;;;;0.63;0.63;;;21.50;59.70;;;;;;4920041;29;20466;-73
2023/01/11 07:25:58;;;;;;;1.67;0.90;;;21.50;59.70;;;;;;4920180;29;20460;-72
2023/01/11 07:28:29;;;;;;;0.90;0.90;;;21.50;59.30;;;;;;4926775;29;20480;-77
2023/01/11 07:30:58;;;;;;;1.73;1.00;;;21.40;59.40;;;;;;4917302;29;20460;-76
2023/01/11 07:33:27;;;;;;;0.80;0.80;;;21.40;59.20;;;;;;4929864;29;20439;-74
2023/01/11 07:35:59;;;;;;;0.70;0.70;;;21.40;59.40;;;;;;4935410;29;20531;-74
2023/01/11 07:38:28;;;;;;;1.17;0.77;;;21.30;59.10;;;;;;4932867;29;20463;-74
2023/01/11 07:40:56;;;;;;;0.60;0.60;;;21.30;59.20;;;;;;4931288;29;20573;-75
2023/01/11 07:43:23;;;;;;;1.03;0.80;;;21.30;59.30;;;;;;4928711;29;20877;-75
2023/01/11 07:45:52;;;;;;;0.57;0.57;;;21.30;59.20;;;;;;4931627;29;20860;-75
2023/01/11 07:48:25;;;;;;;0.83;0.83;;;21.30;59.20;;;;;;4933941;29;20482;-76
2023/01/11 07:50:54;;;;;;;1.23;0.80;;;21.30;59.20;;;;;;4929774;29;20558;-74
2023/01/11 07:53:25;;;;;;;1.90;1.10;;;21.30;59.50;;;;;;4932619;29;20916;-75
2023/01/11 07:55:55;;;;;;;0.93;0.93;;;21.30;59.30;;;;;;4928093;29;20475;-72
2023/01/11 07:58:23;;;;;;;0.77;0.77;;;21.30;59.50;;;;;;4933522;29;20860;-74
2023/01/11 08:00:51;;;;;;;1.73;1.03;;;21.30;59.30;;;;;;4932601;29;20463;-74
2023/01/11 08:03:19;;;;;;;1.20;1.10;;;21.40;59.30;;;;;;4931377;29;20558;-74
2023/01/11 08:05:50;;;;;;;1.73;0.80;;;21.40;59.40;;;;;;4926198;29;20519;-73
2023/01/11 08:08:18;;;;;;;3.53;1.03;;;21.40;59.20;;;;;;4927681;29;20973;-73
2023/01/11 08:14:38;;;;;;;1.40;1.00;;;21.40;59.20;;;;;;4931774;29;20466;-75
2023/01/11 08:16:22;;;;;;;2.20;0.87;;;21.50;59.20;;;;;;4933559;29;20452;-73
2023/01/11 08:18:50;;;;;;;1.13;0.77;;;21.50;59.00;;;;;;4933630;29;20451;-74
2023/01/11 08:21:20;;;;;;;1.47;0.90;;;21.50;59.10;;;;;;4933107;29;20536;-73
2023/01/11 08:23:48;;;;;;;0.93;0.83;;;21.50;59.00;;;;;;4933189;29;20469;-74
2023/01/11 08:26:17;;;;;;;0.80;0.80;;;21.50;59.40;;;;;;4933378;29;21035;-74
2023/01/11 08:28:46;;;;;;;1.27;0.80;;;21.50;59.00;;;;;;4928210;29;20514;-74
2023/01/11 08:31:14;;;;;;;0.80;0.80;;;21.50;59.30;;;;;;4932865;29;20462;-73
2023/01/11 08:33:42;;;;;;;1.83;0.73;;;21.50;59.70;;;;;;4928284;29;20456;-74
2023/01/11 08:36:12;;;;;;;1.60;0.80;;;21.50;59.80;;;;;;4937631;29;20525;-74
2023/01/11 08:38:41;;;;;;;1.90;1.80;;;21.40;59.80;;;;;;4936591;29;20993;-74
2023/01/11 08:41:10;;;;;;;1.20;1.10;;;21.40;59.90;;;;;;4937719;29;21042;-74
2023/01/11 08:43:40;;;;;;;1.00;0.70;;;21.40;59.80;;;;;;4937317;29;20458;-72
2023/01/11 08:46:09;;;;;;;1.87;1.00;;;21.40;59.60;;;;;;4937251;29;20456;-73
2023/01/11 08:48:37;;;;;;;1.77;0.90;;;21.40;59.40;;;;;;4937091;29;20479;-72
2023/01/11 08:51:06;;;;;;;2.20;0.97;;;21.40;59.50;;;;;;4933859;29;20982;-74
2023/01/11 08:53:34;;;;;;;1.63;0.80;;;21.30;59.50;;;;;;4930294;29;20462;-75
2023/01/11 08:56:02;;;;;;;0.80;0.70;;;21.30;59.90;;;;;;4937439;29;20543;-76
2023/01/11 08:58:30;;;;;;;0.90;0.70;;;21.30;59.90;;;;;;4937632;29;20542;-75
2023/01/11 09:01:02;;;;;;;1.80;1.13;;;21.30;60.00;;;;;;4937997;29;20454;-73
2023/01/11 09:03:30;;;;;;;1.27;1.10;;;21.30;60.00;;;;;;4938633;29;20514;-74
2023/01/11 09:05:59;;;;;;;1.40;0.80;;;21.30;60.00;;;;;;4928466;29;20558;-74
2023/01/11 09:08:28;;;;;;;1.10;0.93;;;21.40;60.00;;;;;;4918908;29;20794;-75
2023/01/11 09:10:58;;;;;;;1.23;0.97;;;21.40;59.50;;;;;;4935829;29;20451;-75
2023/01/11 09:13:26;;;;;;;2.43;0.80;;;21.40;59.80;;;;;;4937492;29;20487;-74
2023/01/11 09:15:56;;;;;;;1.07;0.90;;;21.50;59.80;;;;;;4938233;29;20502;-75
2023/01/11 09:18:26;;;;;;;1.20;1.10;;;21.60;59.70;;;;;;4928203;29;20460;-74
2023/01/11 09:20:54;;;;;;;0.80;0.80;;;21.60;59.50;;;;;;4919269;29;20441;-74
2023/01/11 09:23:22;;;;;;;1.20;0.93;;;21.60;59.60;;;;;;4918962;29;20433;-74
2023/01/11 09:25:51;;;;;;;2.13;0.97;;;21.60;59.20;;;;;;4924247;29;20459;-74
2023/01/11 09:28:19;;;;;;;1.00;0.90;;;21.70;59.10;;;;;;4936537;29;20493;-74
2023/01/11 09:30:47;;;;;;;1.67;0.83;;;21.70;59.00;;;;;;4934788;29;20563;-74
2023/01/11 09:33:15;;;;;;;1.90;0.97;;;21.70;58.90;;;;;;4929831;29;21045;-68
2023/01/11 09:35:45;;;;;;;1.10;0.70;;;21.70;59.40;;;;;;4929842;29;20507;-67
2023/01/11 09:38:14;;;;;;;1.80;1.07;;;21.70;59.30;;;;;;4924775;29;20496;-67
2023/01/11 09:40:51;;;;;;;3.40;1.13;;;21.70;59.30;;;;;;4928592;29;20552;-68
2023/01/11 09:43:26;;;;;;;4.77;1.50;;;21.70;59.30;;;;;;4928300;29;20487;-72
2023/01/11 09:45:57;;;;;;;4.30;1.50;;;21.60;59.40;;;;;;4929278;29;21022;-72
2023/01/11 09:48:35;;;;;;;4.33;1.63;;;21.60;59.80;;;;;;4936264;29;20527;-71
2023/01/11 09:51:05;;;;;;;4.40;1.63;;;21.60;60.00;;;;;;4928698;29;20485;-72
2023/01/11 09:53:37;;;;;;;2.23;1.73;;;21.60;60.30;;;;;;4934876;29;20452;-74
2023/01/11 09:56:11;;;;;;;2.70;1.57;;;21.60;60.30;;;;;;4936258;29;20963;-74
2023/01/11 09:58:55;;;;;;;6.10;1.93;;;21.60;60.30;;;;;;4935237;29;20530;-71
2023/01/11 10:01:32;;;;;;;1.60;1.43;;;21.60;60.80;;;;;;4929939;29;20471;-73
2023/01/11 10:04:36;;;;;;;3.13;1.40;;;21.60;60.20;;;;;;4931862;29;20995;-71
2023/01/11 10:07:42;;;;;;;2.20;1.83;;;21.60;60.50;;;;;;4932540;29;20455;-71
2023/01/11 10:10:26;;;;;;;4.57;1.80;;;21.60;60.40;;;;;;4922434;29;20499;-74
2023/01/11 10:13:31;;;;;;;8.80;1.80;;;21.60;60.40;;;;;;4928379;29;20455;-73
2023/01/11 10:16:33;;;;;;;1.73;1.50;;;21.60;60.50;;;;;;4932540;29;20467;-71
2023/01/11 10:19:29;;;;;;;2.60;1.50;;;21.70;60.30;;;;;;4932122;29;20688;-72
2023/01/11 10:22:14;;;;;;;3.10;1.40;;;21.70;60.60;;;;;;4929476;29;20459;-71
2023/01/11 10:24:48;;;;;;;3.07;1.53;;;21.80;60.40;;;;;;4933692;29;20524;-72
2023/01/11 10:27:21;;;;;;;1.90;0.90;;;21.80;60.50;;;;;;4927838;29;20936;-72
2023/01/11 10:30:11;;;;;;;2.40;1.40;;;21.90;60.30;;;;;;4930707;29;20868;-71
2023/01/11 10:33:05;;;;;;;4.17;1.37;;;22.00;60.20;;;;;;4930772;29;20512;-72
2023/01/11 10:35:57;;;;;;;2.63;1.50;;;22.00;60.30;;;;;;4930301;29;20451;-71
2023/01/11 10:38:53;;;;;;;2.80;1.60;;;22.00;60.30;;;;;;4933912;29;20554;-73
2023/01/11 10:41:32;;;;;;;3.20;1.20;;;22.00;60.20;;;;;;4930917;29;20629;-71
2023/01/11 10:44:09;;;;;;;4.40;1.37;;;22.00;60.10;;;;;;4931682;29;20509;-73
2023/01/11 10:46:43;;;;;;;1.87;1.30;;;22.10;60.10;;;;;;4932517;29;20455;-71
2023/01/11 10:49:38;;;;;;;1.57;1.27;;;22.10;60.30;;;;;;4932493;29;20569;-71
2023/01/11 10:52:21;;;;;;;1.47;1.20;;;22.10;60.00;;;;;;4934550;29;21316;-72
2023/01/11 10:54:53;;;;;;;1.57;1.17;;;22.10;60.10;;;;;;4933759;29;20793;-71
2023/01/11 10:57:36;;;;;;;3.33;1.50;;;22.20;60.00;;;;;;4933275;29;20482;-70
2023/01/11 11:00:34;;;;;;;2.97;1.30;;;22.10;59.90;;;;;;4931056;29;20456;-71
2023/01/11 11:03:38;;;;;;;2.03;1.20;;;22.20;59.90;;;;;;4928667;29;20464;-70
2023/01/11 11:06:12;;;;;;;6.93;1.40;;;22.20;60.00;;;;;;4909279;29;20474;-71
2023/01/11 11:08:48;;;;;;;2.00;1.70;;;22.20;59.90;;;;;;4920229;29;20482;-71
2023/01/11 11:11:21;;;;;;;1.43;1.30;;;22.20;59.90;;;;;;4927037;29;20966;-70
2023/01/11 11:13:58;;;;;;;1.60;1.23;;;22.10;59.90;;;;;;4926451;29;20992;-71
2023/01/11 11:16:44;;;;;;;2.63;1.40;;;22.10;60.10;;;;;;4928499;29;20952;-72
2023/01/11 11:19:25;;;;;;;1.80;1.20;;;22.10;60.20;;;;;;4926205;29;20864;-72
2023/01/11 11:21:53;;;;;;;1.53;1.10;;;22.10;60.00;;;;;;4929021;29;20995;-70
2023/01/11 11:24:26;;;;;;;1.80;0.93;;;22.10;59.50;;;;;;4930400;29;20536;-71
2023/01/11 11:27:01;;;;;;;1.63;1.33;;;22.10;59.50;;;;;;4928429;29;20798;-71
2023/01/11 11:29:31;;;;;;;2.00;1.10;;;22.00;59.50;;;;;;4921941;29;20559;-70
2023/01/11 11:32:00;;;;;;;1.83;1.07;;;22.00;59.50;;;;;;4924601;29;20456;-65
2023/01/11 11:34:29;;;;;;;1.00;0.90;;;22.00;59.60;;;;;;4921406;29;20460;-66
2023/01/11 11:37:00;;;;;;;1.60;1.30;;;22.00;59.70;;;;;;4924913;29;20452;-68
2023/01/11 11:39:30;;;;;;;1.80;1.37;;;22.00;59.60;;;;;;4924907;29;20469;-67
2023/01/11 11:42:06;;;;;;;1.50;1.40;;;22.00;59.60;;;;;;4926630;29;20486;-69
2023/01/11 11:44:36;;;;;;;1.57;1.10;;;22.00;59.60;;;;;;4923720;29;20546;-66
2023/01/11 11:47:06;;;;;;;1.73;1.30;;;22.00;59.60;;;;;;4928936;29;20810;-70
2023/01/11 11:49:37;;;;;;;1.73;1.40;;;22.00;59.60;;;;;;4924379;29;20525;-66
2023/01/11 11:52:07;;;;;;;2.20;1.17;;;22.00;59.60;;;;;;4926787;29;20519;-66
2023/01/11 11:54:40;;;;;;;1.10;0.90;;;22.00;59.60;;;;;;4930114;29;20503;-65
2023/01/11 11:57:20;;;;;;;2.47;1.37;;;22.00;59.60;;;;;;4932112;29;20469;-66
2023/01/11 11:59:54;;;;;;;3.17;1.10;;;21.90;59.60;;;;;;4928825;29;20507;-66
2023/01/11 12:02:26;;;;;;;2.00;1.37;;;21.90;59.50;;;;;;4925564;29;20957;-65
2023/01/11 12:04:57;;;;;;;1.90;1.27;;;21.90;59.60;;;;;;4925026;29;20496;-68
2023/01/11 12:07:29;;;;;;;1.20;1.10;;;21.90;59.50;;;;;;4931802;29;20459;-68
2023/01/11 12:10:02;;;;;;;1.60;1.47;;;21.90;59.60;;;;;;4931399;29;20987;-66
2023/01/11 12:12:32;;;;;;;1.13;1.03;;;21.90;59.60;;;;;;4927734;29;20923;-65
2023/01/11 12:15:19;;;;;;;0.93;0.90;;;21.90;59.70;;;;;;4929016;29;20515;-67
2023/01/11 12:17:48;;;;;;;4.63;1.73;;;21.80;59.60;;;;;;4933451;29;20457;-65
2023/01/11 12:20:33;;;;;;;3.70;1.30;;;21.80;59.80;;;;;;4933465;29;20547;-66
2023/01/11 12:23:16;;;;;;;2.93;1.60;;;21.80;59.80;;;;;;4927581;29;21003;-66
2023/01/11 12:26:16;;;;;;;2.00;1.17;;;21.80;59.80;;;;;;4926397;29;20913;-67
2023/01/11 12:29:14;;;;;;;2.17;1.20;;;21.70;59.90;;;;;;4923918;29;20553;-68
2023/01/11 12:32:00;;;;;;;3.87;1.00;;;21.70;59.90;;;;;;4923028;29;20994;-67
2023/01/11 12:34:44;;;;;;;1.03;0.87;;;21.70;60.00;;;;;;4922171;29;21123;-68
2023/01/11 12:37:22;;;;;;;1.90;0.97;;;21.70;60.00;;;;;;4926733;29;20448;-67
2023/01/11 12:39:55;;;;;;;1.33;1.07;;;21.70;60.30;;;;;;4929656;29;21133;-67
2023/01/11 12:42:51;;;;;;;2.13;1.10;;;21.60;60.30;;;;;;4929023;29;20574;-67
2023/01/11 12:45:30;;;;;;;1.80;1.37;;;21.60;60.30;;;;;;4930439;29;20542;-66
2023/01/11 12:48:35;;;;;;;1.80;1.27;;;21.60;60.30;;;;;;4933482;29;20554;-68
2023/01/11 12:51:20;;;;;;;1.40;1.20;;;21.60;60.40;;;;;;4922636;29;20498;-67
2023/01/11 12:54:05;;;;;;;3.90;1.53;;;21.60;60.50;;;;;;4931978;29;20455;-67
2023/01/11 12:56:47;;;;;;;2.17;1.17;;;21.70;60.50;;;;;;4930668;29;20510;-67
2023/01/11 12:59:28;;;;;;;1.30;1.10;;;21.70;60.50;;;;;;4931945;29;20543;-69
2023/01/11 13:02:13;;;;;;;2.00;1.17;;;21.70;60.50;;;;;;4930872;29;20552;-69
2023/01/11 13:04:58;;;;;;;2.67;1.83;;;21.70;60.50;;;;;;4925705;29;20463;-72
2023/01/11 13:07:36;;;;;;;3.77;1.47;;;21.70;60.50;;;;;;4929912;29;20464;-73
2023/01/11 13:10:20;;;;;;;1.40;1.30;;;21.70;60.60;;;;;;4929283;29;20610;-73
2023/01/11 13:12:56;;;;;;;3.07;1.17;;;21.80;60.70;;;;;;4932833;29;20546;-72
2023/01/11 13:15:34;;;;;;;1.80;1.03;;;21.80;60.70;;;;;;4929680;29;20518;-73
2023/01/11 13:18:14;;;;;;;1.80;1.07;;;21.80;60.60;;;;;;4930465;29;20451;-72
2023/01/11 13:20:49;;;;;;;0.93;0.93;;;21.80;60.70;;;;;;4924988;29;20468;-72
2023/01/11 13:23:38;;;;;;;6.10;1.40;;;21.90;60.60;;;;;;4933183;28;20552;-72
2023/01/11 13:26:19;;;;;;;1.67;1.13;;;21.90;60.40;;;;;;4934547;29;20824;-71
2023/01/11 13:28:53;;;;;;;1.37;0.97;;;21.90;60.50;;;;;;4928529;29;20464;-71
2023/01/11 13:31:23;;;;;;;2.23;1.20;;;21.90;60.60;;;;;;4933925;29;20479;-72
2023/01/11 13:33:56;;;;;;;0.90;0.90;;;21.90;60.50;;;;;;4930994;29;20558;-74
2023/01/11 13:36:29;;;;;;;2.77;1.43;;;21.90;60.80;;;;;;4936047;29;20440;-72
2023/01/11 13:39:04;;;;;;;1.70;1.33;;;21.90;60.70;;;;;;4925621;29;20464;-75
2023/01/11 13:41:37;;;;;;;1.90;0.83;;;21.90;60.90;;;;;;4935846;29;20812;-72
2023/01/11 13:44:12;;;;;;;4.57;1.27;;;22.00;60.90;;;;;;4930715;29;20579;-73